Time;durP1;ratioP1;P1;durP2;ratioP2;P2;SDS_P1;SDS_P2;PMS_P1;PMS_P2;Temp;Humidity;BMP_temperature;BMP_pressure;BME280_temperature;BME280_humidity;BME280_pressure;Samples;Min_cycle;Max_cycle;Signal;HPM_P1;HPM_P2
2022/12/09 06:35:03;;;;;;;47.05;25.70;;;;;;;;;;5220138;23;20145;-56
2022/12/09 06:37:31;;;;;;;32.40;18.33;;;;;;;;;;4974264;28;20031;-59
2022/12/09 06:39:57;;;;;;;40.30;20.35;;;;;;;;;;4973402;28;20085;-58
2022/12/09 06:42:23;;;;;;;40.72;22.73;;;;;;;;;;4963441;28;20114;-58
2022/12/09 06:44:49;;;;;;;62.22;30.67;;;;;;;;;;4963017;28;20051;-58
2022/12/09 06:47:15;;;;;;;55.95;31.88;;;;;;;;;;4964130;28;20029;-58
2022/12/09 06:49:41;;;;;;;52.13;29.00;;;;;;;;;;4971660;28;20019;-58
2022/12/09 06:52:07;;;;;;;44.85;27.25;;;;;;;;;;4970305;28;20031;-56
2022/12/09 06:54:33;;;;;;;42.03;22.38;;;;;;;;;;4963136;28;20368;-56
2022/12/09 06:56:59;;;;;;;30.25;16.90;;;;;;;;;;4963846;28;20023;-58
2022/12/09 06:59:26;;;;;;;34.97;22.48;;;;;;;;;;4961948;28;20038;-58
2022/12/09 07:01:52;;;;;;;28.95;16.75;;;;;;;;;;4966981;28;20125;-58
2022/12/09 07:04:18;;;;;;;30.25;15.30;;;;;;;;;;4961914;28;20127;-58
2022/12/09 07:06:45;;;;;;;24.38;14.10;;;;;;;;;;4963238;28;20034;-57
2022/12/09 07:09:13;;;;;;;31.00;14.85;;;;;;;;;;4963587;28;20023;-57
2022/12/09 07:11:41;;;;;;;25.08;13.75;;;;;;;;;;4961972;28;20034;-58
2022/12/09 07:14:07;;;;;;;21.42;12.98;;;;;;;;;;4962553;28;20050;-58
2022/12/09 07:16:34;;;;;;;24.10;13.38;;;;;;;;;;4963831;28;20041;-59
2022/12/09 07:19:00;;;;;;;27.30;13.75;;;;;;;;;;4963492;28;20383;-59
2022/12/09 07:21:26;;;;;;;24.15;13.23;;;;;;;;;;4962078;28;20502;-57
2022/12/09 07:23:53;;;;;;;24.40;13.75;;;;;;;;;;4961650;28;20498;-58
2022/12/09 07:26:19;;;;;;;19.90;11.57;;;;;;;;;;4963612;28;20058;-58
2022/12/09 07:28:46;;;;;;;26.55;13.35;;;;;;;;;;4962104;28;20459;-58
2022/12/09 07:31:18;;;;;;;20.92;12.32;;;;;;;;;;4961711;28;20027;-62
2022/12/09 07:33:44;;;;;;;24.30;12.23;;;;;;;;;;4960677;28;20038;-62
2022/12/09 07:36:10;;;;;;;21.23;11.77;;;;;;;;;;4943780;29;20035;-58
2022/12/09 07:38:36;;;;;;;27.45;12.85;;;;;;;;;;4941044;29;20038;-58
2022/12/09 07:41:08;;;;;;;22.10;11.70;;;;;;;;;;4943779;29;20476;-58
2022/12/09 07:43:35;;;;;;;26.05;12.00;;;;;;;;;;4933432;29;20033;-58
2022/12/09 07:46:05;;;;;;;29.33;13.70;;;;;;;;;;4944752;29;20063;-59
2022/12/09 07:48:31;;;;;;;23.02;12.88;;;;;;;;;;4944248;29;20026;-58
2022/12/09 07:51:00;;;;;;;21.73;11.73;;;;;;;;;;4943072;29;20480;-58
2022/12/09 07:53:26;;;;;;;23.73;10.85;;;;;;;;;;4941848;29;20027;-58
2022/12/09 07:55:52;;;;;;;24.40;12.05;;;;;;;;;;4943505;29;20431;-59
2022/12/09 07:58:18;;;;;;;20.00;10.80;;;;;;;;;;4942777;29;20052;-60
2022/12/09 08:00:44;;;;;;;22.40;11.65;;;;;;;;;;4941460;29;20067;-59
2022/12/09 08:03:11;;;;;;;21.45;11.95;;;;;;;;;;4942444;29;20039;-58
2022/12/09 08:05:37;;;;;;;18.70;10.50;;;;;;;;;;4942812;29;20020;-59
2022/12/09 08:08:03;;;;;;;23.75;10.98;;;;;;;;;;4941453;29;20753;-58
2022/12/09 08:10:29;;;;;;;23.55;10.65;;;;;;;;;;4943359;29;20023;-59
2022/12/09 08:12:55;;;;;;;25.27;12.82;;;;;;;;;;4942378;29;20496;-58
2022/12/09 08:15:21;;;;;;;27.58;13.48;;;;;;;;;;4940216;29;20043;-58
2022/12/09 08:17:47;;;;;;;25.85;11.50;;;;;;;;;;4924934;29;20364;-60
2022/12/09 08:20:13;;;;;;;19.67;10.23;;;;;;;;;;4942968;29;20062;-59
2022/12/09 08:22:39;;;;;;;20.50;10.43;;;;;;;;;;4941800;29;20034;-58
2022/12/09 08:25:05;;;;;;;18.92;9.57;;;;;;;;;;4950203;29;20380;-62
2022/12/09 08:27:31;;;;;;;17.13;9.48;;;;;;;;;;4953211;29;20475;-59
2022/12/09 08:29:58;;;;;;;21.83;10.13;;;;;;;;;;4953260;29;20398;-63
2022/12/09 08:32:24;;;;;;;22.63;10.02;;;;;;;;;;4952296;29;20471;-64
2022/12/09 08:34:50;;;;;;;24.08;12.63;;;;;;;;;;4952319;28;20110;-58
2022/12/09 08:37:16;;;;;;;20.58;9.38;;;;;;;;;;4953038;29;20499;-58
2022/12/09 08:39:42;;;;;;;22.35;10.07;;;;;;;;;;4947138;29;20146;-57
2022/12/09 08:42:08;;;;;;;18.52;9.07;;;;;;;;;;4944123;29;20122;-58
2022/12/09 08:44:34;;;;;;;15.50;8.85;;;;;;;;;;4943335;29;20051;-58
2022/12/09 08:47:00;;;;;;;20.33;9.68;;;;;;;;;;4942220;29;20032;-62
2022/12/09 08:49:26;;;;;;;20.08;9.30;;;;;;;;;;4942106;29;20027;-58
2022/12/09 08:51:52;;;;;;;65.30;32.65;;;;;;;;;;4943000;29;20024;-59
2022/12/09 08:54:19;;;;;;;77.95;42.40;;;;;;;;;;4943014;29;20404;-59
2022/12/09 08:56:45;;;;;;;81.38;43.75;;;;;;;;;;4940820;29;20020;-63
2022/12/09 08:59:11;;;;;;;86.20;42.88;;;;;;;;;;4941732;29;20023;-59
2022/12/09 09:01:38;;;;;;;97.57;48.58;;;;;;;;;;4943218;29;20082;-59
2022/12/09 09:04:05;;;;;;;93.60;50.10;;;;;;;;;;4945212;29;20033;-60
2022/12/09 09:06:31;;;;;;;97.90;50.50;;;;;;;;;;4951059;29;20082;-58
2022/12/09 09:08:57;;;;;;;99.80;50.60;;;;;;;;;;4950327;29;20031;-57
2022/12/09 09:11:24;;;;;;;108.72;52.47;;;;;;;;;;4951105;29;20036;-57
2022/12/09 09:13:50;;;;;;;101.25;47.63;;;;;;;;;;4951449;28;20089;-57
2022/12/09 09:16:21;;;;;;;104.68;49.70;;;;;;;;;;4944033;29;20467;-59
2022/12/09 09:18:47;;;;;;;86.97;44.60;;;;;;;;;;4953037;29;20019;-55
2022/12/09 09:21:15;;;;;;;80.75;40.38;;;;;;;;;;4952468;29;20035;-60
2022/12/09 09:23:42;;;;;;;83.72;39.67;;;;;;;;;;4954227;29;20019;-66
2022/12/09 09:26:10;;;;;;;67.82;34.15;;;;;;;;;;4952903;29;20031;-59
2022/12/09 09:28:36;;;;;;;55.70;27.27;;;;;;;;;;4953716;29;20031;-58
2022/12/09 09:31:03;;;;;;;49.70;24.90;;;;;;;;;;4951504;29;20033;-57
2022/12/09 09:33:29;;;;;;;41.63;20.20;;;;;;;;;;4952852;29;20086;-61
2022/12/09 09:35:56;;;;;;;34.13;17.30;;;;;;;;;;4935383;29;20064;-58
2022/12/09 09:38:22;;;;;;;32.13;16.90;;;;;;;;;;4928714;29;20023;-61
2022/12/09 09:40:48;;;;;;;35.78;18.38;;;;;;;;;;4927920;29;20031;-57
2022/12/09 09:43:16;;;;;;;41.88;20.98;;;;;;;;;;4932905;29;20498;-64
2022/12/09 09:45:42;;;;;;;37.55;20.27;;;;;;;;;;4913990;29;20032;-58
2022/12/09 09:48:11;;;;;;;45.40;22.52;;;;;;;;;;4932875;29;20534;-64
2022/12/09 09:50:37;;;;;;;41.90;21.65;;;;;;;;;;4933463;29;20056;-58
2022/12/09 09:53:19;;;;;;;44.25;22.75;;;;;;;;;;4932793;29;20024;-60
2022/12/09 09:55:48;;;;;;;37.33;20.27;;;;;;;;;;4930203;29;20115;-61
2022/12/09 09:58:23;;;;;;;37.80;20.90;;;;;;;;;;4931214;29;20079;-60
2022/12/09 10:00:56;;;;;;;46.25;22.00;;;;;;;;;;4928936;29;20087;-59
2022/12/09 10:03:24;;;;;;;;;;;;;;;;;;4931805;29;20087;-62
2022/12/09 10:05:54;;;;;;;39.90;19.58;;;;;;;;;;4930518;29;19911;-58
2022/12/09 10:08:29;;;;;;;37.45;17.50;;;;;;;;;;4929781;29;20027;-58
2022/12/09 10:10:58;;;;;;;33.90;15.23;;;;;;;;;;4936123;29;20432;-58
2022/12/09 10:13:43;;;;;;;34.05;13.25;;;;;;;;;;4935889;29;20431;-59
2022/12/09 10:16:35;;;;;;;28.85;13.32;;;;;;;;;;4936376;29;20091;-58
2022/12/09 10:19:08;;;;;;;29.17;11.95;;;;;;;;;;4924763;29;20055;-64
2022/12/09 10:21:36;;;;;;;26.83;11.30;;;;;;;;;;4936138;29;20068;-61
2022/12/09 10:24:13;;;;;;;27.30;11.27;;;;;;;;;;4936198;29;20464;-58
2022/12/09 10:26:39;;;;;;;24.95;11.10;;;;;;;;;;4935744;29;20028;-58
2022/12/09 10:29:14;;;;;;;28.90;9.13;;;;;;;;;;4935966;29;20034;-58
2022/12/09 10:31:40;;;;;;;23.75;10.35;;;;;;;;;;4935998;29;20087;-57
2022/12/09 10:34:08;;;;;;;31.27;9.95;;;;;;;;;;4935117;29;20476;-63
2022/12/09 10:36:34;;;;;;;27.73;10.88;;;;;;;;;;4935956;29;20038;-58
2022/12/09 10:39:00;;;;;;;28.25;10.50;;;;;;;;;;4935711;29;20095;-61
2022/12/09 10:44:18;;;;;;;29.08;9.18;;;;;;;;;;4935667;29;20062;-63
2022/12/09 10:46:44;;;;;;;30.13;9.93;;;;;;;;;;4936009;29;20064;-57
2022/12/09 10:49:18;;;;;;;25.70;10.10;;;;;;;;;;4935885;29;20032;-64
2022/12/09 10:51:48;;;;;;;34.53;10.50;;;;;;;;;;4935638;29;20492;-62
2022/12/09 10:54:34;;;;;;;28.92;10.07;;;;;;;;;;4935773;29;20079;-63
2022/12/09 10:57:00;;;;;;;35.28;11.48;;;;;;;;;;4934901;29;20028;-64
2022/12/09 10:59:28;;;;;;;31.95;10.65;;;;;;;;;;4934990;29;20031;-59
2022/12/09 11:02:00;;;;;;;35.10;10.20;;;;;;;;;;4935328;29;20039;-58
2022/12/09 11:04:26;;;;;;;30.27;9.80;;;;;;;;;;4935375;29;20551;-58
2022/12/09 11:06:53;;;;;;;34.33;9.85;;;;;;;;;;4935636;29;20086;-58
2022/12/09 11:09:26;;;;;;;23.98;9.55;;;;;;;;;;4934916;29;20055;-58
2022/12/09 11:11:52;;;;;;;33.35;10.20;;;;;;;;;;4935439;29;20058;-63
2022/12/09 11:14:30;;;;;;;30.60;10.48;;;;;;;;;;4935489;29;20110;-58
2022/12/09 11:16:58;;;;;;;29.50;10.48;;;;;;;;;;4935294;29;20106;-57
2022/12/09 11:19:28;;;;;;;38.30;11.80;;;;;;;;;;4935045;29;20046;-60
2022/12/09 11:22:11;;;;;;;38.88;11.10;;;;;;;;;;4935069;29;20495;-58
2022/12/09 11:24:39;;;;;;;33.78;10.75;;;;;;;;;;4934803;29;20035;-57
2022/12/09 11:27:22;;;;;;;29.00;11.00;;;;;;;;;;4935187;29;20047;-66
2022/12/09 11:29:48;;;;;;;37.22;11.48;;;;;;;;;;4928223;29;20030;-58
2022/12/09 11:32:14;;;;;;;31.60;10.00;;;;;;;;;;4934899;29;20107;-58
2022/12/09 11:34:45;;;;;;;43.13;16.92;;;;;;;;;;4941685;29;20574;-58
2022/12/09 11:37:11;;;;;;;36.78;13.27;;;;;;;;;;4953585;28;20107;-59
2022/12/09 11:39:38;;;;;;;33.90;11.77;;;;;;;;;;4953461;29;20027;-58
2022/12/09 11:42:13;;;;;;;39.70;11.70;;;;;;;;;;4953087;29;20035;-60
2022/12/09 11:44:41;;;;;;;36.30;10.95;;;;;;;;;;4953684;29;20487;-61
2022/12/09 11:47:12;;;;;;;33.35;11.50;;;;;;;;;;4953696;29;20086;-64
2022/12/09 11:49:58;;;;;;;38.08;12.43;;;;;;;;;;4953702;29;20462;-64
2022/12/09 11:52:26;;;;;;;43.10;12.43;;;;;;;;;;4940174;29;20042;-58
2022/12/09 11:54:57;;;;;;;32.15;11.32;;;;;;;;;;4952689;29;20035;-58
2022/12/09 11:57:23;;;;;;;35.50;11.95;;;;;;;;;;4952625;29;20023;-58
2022/12/09 11:59:51;;;;;;;50.00;13.68;;;;;;;;;;4953398;29;20030;-59
2022/12/09 12:02:23;;;;;;;49.95;16.23;;;;;;;;;;4952941;29;20137;-64
2022/12/09 12:05:01;;;;;;;51.92;16.25;;;;;;;;;;4953239;29;20113;-58
2022/12/09 12:07:34;;;;;;;54.20;15.00;;;;;;;;;;4953368;29;20031;-62
2022/12/09 12:10:01;;;;;;;46.75;15.63;;;;;;;;;;4953349;29;20027;-61
2022/12/09 12:12:30;;;;;;;49.00;14.65;;;;;;;;;;4951741;28;20028;-58
2022/12/09 12:14:58;;;;;;;52.88;14.48;;;;;;;;;;4952950;29;20394;-58
2022/12/09 12:17:26;;;;;;;55.08;12.23;;;;;;;;;;4953239;29;20111;-61
2022/12/09 12:19:55;;;;;;;49.60;11.73;;;;;;;;;;4952284;28;20035;-60
2022/12/09 12:22:44;;;;;;;51.10;11.77;;;;;;;;;;4945905;29;20035;-63
2022/12/09 12:25:30;;;;;;;47.95;11.38;;;;;;;;;;4930995;29;20475;-57
2022/12/09 12:28:06;;;;;;;49.00;11.52;;;;;;;;;;4951774;29;20439;-58
2022/12/09 12:30:48;;;;;;;57.72;14.10;;;;;;;;;;4953121;29;20035;-62
2022/12/09 12:33:32;;;;;;;43.83;11.43;;;;;;;;;;4952959;29;20106;-57
2022/12/09 12:36:01;;;;;;;51.28;13.75;;;;;;;;;;4952257;29;20515;-63
2022/12/09 12:38:35;;;;;;;53.28;12.88;;;;;;;;;;4958455;28;20106;-58
2022/12/09 12:41:10;;;;;;;55.80;13.02;;;;;;;;;;4961632;28;20038;-63
2022/12/09 12:46:52;;;;;;;52.90;11.75;;;;;;;;;;4960475;28;20050;-57
2022/12/09 12:49:24;;;;;;;58.03;13.48;;;;;;;;;;4966407;28;20046;-63
2022/12/09 12:51:59;;;;;;;47.33;12.18;;;;;;;;;;4957413;28;20039;-57
2022/12/09 12:54:44;;;;;;;56.45;11.30;;;;;;;;;;4952397;29;20023;-59
2022/12/09 12:57:16;;;;;;;48.65;10.65;;;;;;;;;;4958407;28;20446;-62
2022/12/09 12:59:49;;;;;;;51.67;11.02;;;;;;;;;;4951918;28;20823;-61
2022/12/09 13:02:15;;;;;;;;;;;;;;;;;;4958870;28;20386;-58
2022/12/09 13:04:47;;;;;;;44.70;10.38;;;;;;;;;;4957442;28;20365;-59
2022/12/09 13:07:13;;;;;;;;;;;;;;;;;;4954862;28;20027;-63
2022/12/09 13:09:39;;;;;;;53.50;12.13;;;;;;;;;;4958023;28;20003;-59
2022/12/09 13:12:10;;;;;;;48.03;12.60;;;;;;;;;;4964633;28;20101;-58
2022/12/09 13:14:46;;;;;;;40.20;10.53;;;;;;;;;;4961745;28;20027;-57
2022/12/09 13:17:13;;;;;;;40.38;11.52;;;;;;;;;;4959711;28;20283;-57
2022/12/09 13:19:44;;;;;;;56.35;13.18;;;;;;;;;;4943571;28;20449;-57
2022/12/09 13:22:13;;;;;;;54.60;11.95;;;;;;;;;;4951923;29;20487;-58
2022/12/09 13:25:02;;;;;;;58.47;12.73;;;;;;;;;;4949231;29;20419;-57
2022/12/09 13:27:36;;;;;;;43.83;11.30;;;;;;;;;;4874366;29;20148;-59
2022/12/09 13:30:10;;;;;;;46.40;13.10;;;;;;;;;;4874699;29;20788;-64
2022/12/09 13:32:54;;;;;;;49.80;13.82;;;;;;;;;;4874287;29;20123;-58
2022/12/09 13:35:23;;;;;;;52.58;10.75;;;;;;;;;;4874010;29;20053;-58
2022/12/09 13:37:51;;;;;;;50.83;11.15;;;;;;;;;;4877165;29;20057;-62
2022/12/09 13:40:20;;;;;;;43.50;10.65;;;;;;;;;;4874628;29;21018;-60
2022/12/09 13:42:52;;;;;;;47.95;10.93;;;;;;;;;;4874633;29;20144;-60
2022/12/09 13:45:21;;;;;;;54.47;11.57;;;;;;;;;;4874751;29;20037;-65
2022/12/09 13:47:47;;;;;;;47.03;11.18;;;;;;;;;;4874304;29;20066;-59
2022/12/09 13:50:25;;;;;;;46.28;11.63;;;;;;;;;;4879881;29;20049;-62
2022/12/09 13:52:52;;;;;;;47.35;11.70;;;;;;;;;;4892505;29;20800;-64
2022/12/09 13:55:36;;;;;;;41.13;10.73;;;;;;;;;;4890475;29;20047;-64
2022/12/09 13:58:11;;;;;;;60.60;12.95;;;;;;;;;;4873787;29;20127;-60
2022/12/09 14:00:38;;;;;;;49.45;11.52;;;;;;;;;;4874168;29;20117;-60
2022/12/09 14:03:24;;;;;;;56.03;12.85;;;;;;;;;;4877913;29;20041;-61
2022/12/09 14:05:52;;;;;;;46.90;11.35;;;;;;;;;;4955434;29;20491;-64
2022/12/09 14:08:25;;;;;;;51.45;12.25;;;;;;;;;;4955394;29;20383;-62
2022/12/09 14:10:52;;;;;;;58.60;14.23;;;;;;;;;;4955654;29;20448;-63
2022/12/09 14:13:24;;;;;;;58.05;13.23;;;;;;;;;;4970422;28;20027;-59
2022/12/09 14:16:09;;;;;;;50.30;13.53;;;;;;;;;;4974560;28;20475;-65
2022/12/09 14:18:35;;;;;;;58.28;13.95;;;;;;;;;;4974641;28;20261;-61
2022/12/09 14:21:19;;;;;;;53.78;14.63;;;;;;;;;;4974247;28;20031;-59
2022/12/09 14:24:05;;;;;;;36.88;12.45;;;;;;;;;;4969363;28;20110;-59
2022/12/09 14:26:44;;;;;;;49.33;12.77;;;;;;;;;;4972407;28;20038;-59
2022/12/09 14:29:10;;;;;;;50.78;13.25;;;;;;;;;;4957480;28;20027;-59
2022/12/09 14:31:49;;;;;;;47.95;12.85;;;;;;;;;;4952772;29;20054;-58
2022/12/09 14:34:24;;;;;;;52.75;13.15;;;;;;;;;;4947029;28;20048;-62
2022/12/09 14:36:53;;;;;;;49.53;14.82;;;;;;;;;;4933343;29;20051;-56
2022/12/09 14:39:23;;;;;;;48.45;15.85;;;;;;;;;;4934438;29;20123;-62
2022/12/09 14:41:58;;;;;;;57.97;14.80;;;;;;;;;;4934221;29;20040;-62
2022/12/09 14:44:36;;;;;;;53.17;15.02;;;;;;;;;;4933738;29;20036;-65
2022/12/09 14:47:21;;;;;;;60.42;14.25;;;;;;;;;;4933520;29;20476;-64
2022/12/09 14:49:48;;;;;;;50.42;14.73;;;;;;;;;;4933608;29;20031;-63
2022/12/09 14:52:26;;;;;;;58.75;16.02;;;;;;;;;;4934141;29;20408;-57
2022/12/09 14:54:53;;;;;;;54.95;14.23;;;;;;;;;;4934150;29;20035;-58
2022/12/09 14:57:21;;;;;;;47.38;11.95;;;;;;;;;;4914381;29;20043;-61
2022/12/09 14:59:49;;;;;;;48.40;12.98;;;;;;;;;;4935277;29;20024;-59
2022/12/09 15:02:15;;;;;;;47.22;13.63;;;;;;;;;;4934157;29;20491;-59
2022/12/09 15:04:42;;;;;;;49.08;13.45;;;;;;;;;;4934712;29;20032;-59
2022/12/09 15:07:11;;;;;;;50.53;14.07;;;;;;;;;;4934783;29;20119;-59
2022/12/09 15:09:38;;;;;;;46.15;12.10;;;;;;;;;;4934825;29;20084;-63
2022/12/09 15:12:10;;;;;;;46.50;13.25;;;;;;;;;;4934767;29;20031;-64
2022/12/09 15:14:37;;;;;;;43.40;12.82;;;;;;;;;;4934399;29;20412;-58
2022/12/09 15:17:04;;;;;;;44.65;13.63;;;;;;;;;;4933867;29;20546;-60
2022/12/09 15:19:30;;;;;;;41.60;12.63;;;;;;;;;;4931913;29;20031;-59
2022/12/09 15:21:57;;;;;;;45.83;13.93;;;;;;;;;;4934641;29;20040;-58
2022/12/09 15:24:23;;;;;;;41.25;12.75;;;;;;;;;;4935062;29;20146;-58
2022/12/09 15:26:57;;;;;;;44.45;13.68;;;;;;;;;;4935121;29;20051;-58
2022/12/09 15:29:28;;;;;;;43.25;12.40;;;;;;;;;;4934949;29;20103;-64
2022/12/09 15:31:55;;;;;;;45.97;13.45;;;;;;;;;;4934968;29;20028;-58
2022/12/09 15:34:22;;;;;;;36.78;12.48;;;;;;;;;;4929601;29;20833;-62
2022/12/09 15:37:00;;;;;;;45.03;14.20;;;;;;;;;;4926103;29;20047;-60
2022/12/09 15:39:40;;;;;;;39.17;12.93;;;;;;;;;;4915766;29;20036;-63
2022/12/09 15:42:09;;;;;;;42.03;12.13;;;;;;;;;;4928265;29;20381;-58
2022/12/09 15:44:45;;;;;;;42.47;11.85;;;;;;;;;;4934867;29;20028;-58
2022/12/09 15:47:15;;;;;;;35.08;12.32;;;;;;;;;;4934949;29;20059;-60
2022/12/09 15:50:03;;;;;;;46.20;12.00;;;;;;;;;;4928172;29;20036;-64
2022/12/09 15:52:36;;;;;;;42.85;12.85;;;;;;;;;;4915394;29;20619;-58
2022/12/09 15:55:05;;;;;;;43.05;12.93;;;;;;;;;;4938097;29;20035;-65
2022/12/09 15:57:31;;;;;;;42.50;12.23;;;;;;;;;;4934425;29;20129;-60
2022/12/09 15:59:58;;;;;;;41.60;13.18;;;;;;;;;;4942616;29;20032;-68
2022/12/09 16:02:28;;;;;;;41.38;12.43;;;;;;;;;;4942919;29;20093;-68
2022/12/09 16:04:57;;;;;;;40.15;12.23;;;;;;;;;;4940218;29;20044;-67
2022/12/09 16:07:24;;;;;;;42.80;12.93;;;;;;;;;;4943233;29;20383;-63
2022/12/09 16:10:05;;;;;;;41.95;13.73;;;;;;;;;;4949044;29;20093;-66
2022/12/09 16:12:32;;;;;;;42.17;12.90;;;;;;;;;;4942874;29;20079;-59
2022/12/09 16:14:58;;;;;;;47.13;12.95;;;;;;;;;;4942414;29;20502;-65
2022/12/09 16:17:26;;;;;;;31.38;11.82;;;;;;;;;;4944046;29;20034;-66
2022/12/09 16:19:52;;;;;;;42.05;12.95;;;;;;;;;;4943521;29;20030;-66
2022/12/09 16:22:22;;;;;;;40.10;13.18;;;;;;;;;;4944010;29;20114;-59
2022/12/09 16:24:54;;;;;;;42.20;12.60;;;;;;;;;;4942427;28;20030;-58
2022/12/09 16:27:22;;;;;;;35.92;11.80;;;;;;;;;;4940472;29;20159;-58
2022/12/09 16:29:53;;;;;;;37.97;12.38;;;;;;;;;;4942840;29;20023;-57
2022/12/09 16:32:22;;;;;;;31.80;13.07;;;;;;;;;;4939836;29;20102;-58
2022/12/09 16:34:50;;;;;;;39.83;13.13;;;;;;;;;;4951074;28;20070;-57
2022/12/09 16:37:35;;;;;;;35.45;12.15;;;;;;;;;;4963047;28;20050;-63
2022/12/09 16:40:18;;;;;;;45.35;13.85;;;;;;;;;;4960341;28;20027;-59
2022/12/09 16:42:44;;;;;;;39.65;12.88;;;;;;;;;;4962935;28;20039;-59
2022/12/09 16:45:20;;;;;;;33.72;13.40;;;;;;;;;;4958890;28;20034;-64
2022/12/09 16:47:46;;;;;;;34.63;12.68;;;;;;;;;;4961408;28;20049;-63
2022/12/09 16:50:12;;;;;;;34.45;11.98;;;;;;;;;;4962968;28;20034;-57
2022/12/09 16:52:39;;;;;;;44.65;13.48;;;;;;;;;;4962314;28;20035;-60
2022/12/09 16:55:15;;;;;;;40.28;13.30;;;;;;;;;;4961441;28;20353;-58
2022/12/09 16:57:41;;;;;;;33.28;13.15;;;;;;;;;;4961867;28;20106;-58
2022/12/09 17:00:08;;;;;;;36.50;11.35;;;;;;;;;;4960790;28;20163;-60
2022/12/09 17:02:35;;;;;;;41.40;14.23;;;;;;;;;;4962684;28;20039;-61
2022/12/09 17:05:01;;;;;;;32.88;12.25;;;;;;;;;;4962169;28;20038;-59
2022/12/09 17:07:28;;;;;;;39.08;13.82;;;;;;;;;;4961223;28;20550;-62
2022/12/09 17:09:54;;;;;;;28.98;11.45;;;;;;;;;;4962646;28;20047;-58
2022/12/09 17:12:20;;;;;;;32.97;12.13;;;;;;;;;;4961602;28;20031;-62
2022/12/09 17:14:46;;;;;;;34.00;12.10;;;;;;;;;;4961082;28;20037;-57
2022/12/09 17:17:12;;;;;;;31.95;12.40;;;;;;;;;;4962434;28;20027;-58
2022/12/09 17:19:40;;;;;;;38.08;12.43;;;;;;;;;;4961020;28;20534;-61
2022/12/09 17:22:06;;;;;;;36.42;12.20;;;;;;;;;;4961081;28;20054;-58
2022/12/09 17:24:32;;;;;;;30.63;11.38;;;;;;;;;;4965434;28;20023;-64
2022/12/09 17:26:58;;;;;;;30.13;12.13;;;;;;;;;;4971487;28;20110;-59
2022/12/09 17:29:25;;;;;;;34.65;10.68;;;;;;;;;;4971713;28;20070;-58
2022/12/09 17:31:51;;;;;;;33.85;11.50;;;;;;;;;;4971664;28;20491;-58
2022/12/09 17:34:17;;;;;;;33.53;12.15;;;;;;;;;;4970985;28;20054;-59
2022/12/09 17:36:44;;;;;;;27.80;9.80;;;;;;;;;;4973337;28;20035;-59
2022/12/09 17:39:14;;;;;;;31.05;10.80;;;;;;;;;;4974994;28;20467;-58
2022/12/09 17:41:41;;;;;;;27.65;11.05;;;;;;;;;;4975186;28;20035;-65
2022/12/09 17:44:07;;;;;;;28.48;11.73;;;;;;;;;;4975075;28;20026;-62
2022/12/09 17:46:33;;;;;;;28.33;11.02;;;;;;;;;;4975182;28;20066;-58
2022/12/09 17:48:59;;;;;;;33.33;10.25;;;;;;;;;;4975388;28;20031;-58
2022/12/09 17:51:25;;;;;;;25.33;10.32;;;;;;;;;;4975666;28;20516;-61
2022/12/09 17:53:51;;;;;;;26.45;10.48;;;;;;;;;;4975387;28;20034;-63
2022/12/09 17:56:21;;;;;;;30.08;10.77;;;;;;;;;;4975396;28;20062;-62
2022/12/09 17:58:53;;;;;;;29.05;10.60;;;;;;;;;;4970761;28;20035;-61
2022/12/09 18:01:20;;;;;;;18.75;7.18;;;;;;;;;;4938376;29;20493;-60
2022/12/09 18:03:46;;;;;;;28.33;9.63;;;;;;;;;;4938367;29;20054;-60
2022/12/09 18:06:12;;;;;;;30.17;10.07;;;;;;;;;;4936530;29;20495;-62
2022/12/09 18:08:38;;;;;;;24.70;10.85;;;;;;;;;;4936131;29;20033;-59
2022/12/09 18:11:08;;;;;;;26.88;10.70;;;;;;;;;;4943287;28;20126;-59
2022/12/09 18:13:34;;;;;;;32.28;10.65;;;;;;;;;;4954271;29;20379;-59
2022/12/09 18:16:00;;;;;;;26.75;10.88;;;;;;;;;;4954793;29;20023;-59
2022/12/09 18:18:29;;;;;;;30.77;11.38;;;;;;;;;;4955026;29;20031;-59
2022/12/09 18:20:59;;;;;;;27.63;11.27;;;;;;;;;;4955221;29;20054;-60
2022/12/09 18:23:25;;;;;;;30.85;11.07;;;;;;;;;;4954312;29;20481;-60
2022/12/09 18:25:51;;;;;;;27.05;9.98;;;;;;;;;;4950816;29;20391;-59
2022/12/09 18:28:17;;;;;;;29.35;10.25;;;;;;;;;;4941720;29;20487;-62
2022/12/09 18:30:43;;;;;;;27.42;10.40;;;;;;;;;;4954428;29;20031;-59
2022/12/09 18:33:09;;;;;;;26.38;10.93;;;;;;;;;;4954265;29;20036;-57
2022/12/09 18:35:39;;;;;;;29.88;11.25;;;;;;;;;;4953080;28;20054;-60
2022/12/09 18:38:05;;;;;;;28.42;9.65;;;;;;;;;;4936152;29;20035;-58
2022/12/09 18:40:31;;;;;;;24.67;10.05;;;;;;;;;;4933866;29;20027;-58
2022/12/09 18:42:57;;;;;;;26.25;9.07;;;;;;;;;;4932510;29;20050;-61
2022/12/09 18:45:23;;;;;;;27.63;9.27;;;;;;;;;;4950546;29;20562;-59
2022/12/09 18:47:49;;;;;;;29.15;8.50;;;;;;;;;;4937854;29;20041;-58
2022/12/09 18:50:15;;;;;;;25.95;8.63;;;;;;;;;;4954644;29;20023;-58
2022/12/09 18:52:42;;;;;;;19.33;7.72;;;;;;;;;;4954672;29;20027;-58
2022/12/09 18:55:08;;;;;;;26.67;8.60;;;;;;;;;;4954680;29;20016;-61
2022/12/09 18:57:34;;;;;;;27.40;8.95;;;;;;;;;;4945066;29;20028;-58
2022/12/09 19:00:00;;;;;;;24.08;8.85;;;;;;;;;;4928774;29;20021;-58
2022/12/09 19:02:26;;;;;;;22.50;8.27;;;;;;;;;;4918273;29;20032;-60
2022/12/09 19:04:52;;;;;;;26.95;8.50;;;;;;;;;;4916330;29;20047;-58
2022/12/09 19:07:18;;;;;;;26.58;8.20;;;;;;;;;;4916730;29;20111;-58
2022/12/09 19:09:44;;;;;;;27.17;9.13;;;;;;;;;;4916276;29;20028;-58
2022/12/09 19:12:10;;;;;;;24.42;8.15;;;;;;;;;;4916349;29;20028;-62
2022/12/09 19:14:39;;;;;;;25.25;7.60;;;;;;;;;;4916623;29;20032;-58
2022/12/09 19:17:05;;;;;;;27.98;8.18;;;;;;;;;;4916216;29;20111;-58
2022/12/09 19:19:32;;;;;;;20.85;7.82;;;;;;;;;;4916466;29;20028;-61
2022/12/09 19:21:58;;;;;;;22.35;8.13;;;;;;;;;;4916089;29;20043;-59
2022/12/09 19:24:29;;;;;;;20.70;8.10;;;;;;;;;;4916060;29;20030;-58
2022/12/09 19:26:56;;;;;;;25.77;7.97;;;;;;;;;;4915992;29;20496;-59
2022/12/09 19:29:27;;;;;;;26.00;7.95;;;;;;;;;;4915609;29;20504;-60
2022/12/09 19:31:53;;;;;;;24.13;7.90;;;;;;;;;;4916093;29;20401;-59
2022/12/09 19:34:24;;;;;;;24.23;7.55;;;;;;;;;;4920042;29;20055;-59
2022/12/09 19:36:50;;;;;;;30.23;9.18;;;;;;;;;;4934480;29;20118;-62
2022/12/09 19:39:18;;;;;;;28.55;9.20;;;;;;;;;;4934592;29;20023;-57
2022/12/09 19:41:44;;;;;;;21.10;9.23;;;;;;;;;;4934646;29;20036;-59
2022/12/09 19:44:12;;;;;;;26.38;9.27;;;;;;;;;;4934572;29;20024;-60
2022/12/09 19:46:39;;;;;;;28.65;9.60;;;;;;;;;;4934404;29;20122;-58
2022/12/09 19:49:05;;;;;;;27.42;9.27;;;;;;;;;;4934710;29;20036;-60
2022/12/09 19:51:31;;;;;;;34.65;9.80;;;;;;;;;;4934270;29;20030;-58
2022/12/09 19:53:58;;;;;;;25.33;8.82;;;;;;;;;;4934225;29;20032;-58
2022/12/09 19:56:24;;;;;;;22.70;8.55;;;;;;;;;;4943069;29;20039;-59
2022/12/09 19:58:51;;;;;;;27.95;8.93;;;;;;;;;;4940802;28;20039;-60
2022/12/09 20:01:18;;;;;;;26.40;9.27;;;;;;;;;;4943271;29;20067;-60
2022/12/09 20:03:45;;;;;;;29.15;8.73;;;;;;;;;;4942765;29;20031;-59
2022/12/09 20:06:12;;;;;;;23.08;9.02;;;;;;;;;;4941537;29;20107;-58
2022/12/09 20:08:39;;;;;;;25.35;9.15;;;;;;;;;;4943150;29;20019;-58
2022/12/09 20:11:08;;;;;;;27.75;8.63;;;;;;;;;;4943109;29;20031;-58
2022/12/09 20:13:34;;;;;;;27.25;9.48;;;;;;;;;;4941521;29;20106;-57
2022/12/09 20:16:04;;;;;;;22.92;7.55;;;;;;;;;;4943001;29;20043;-58
2022/12/09 20:18:30;;;;;;;24.45;8.45;;;;;;;;;;4943360;29;20037;-59
2022/12/09 20:20:59;;;;;;;24.63;8.20;;;;;;;;;;4942180;29;20122;-60
2022/12/09 20:23:25;;;;;;;28.58;8.93;;;;;;;;;;4937392;29;20095;-58
2022/12/09 20:25:51;;;;;;;24.10;8.10;;;;;;;;;;4934217;29;20057;-62
2022/12/09 20:28:17;;;;;;;26.40;7.88;;;;;;;;;;4933695;29;20452;-58
2022/12/09 20:30:43;;;;;;;24.60;8.18;;;;;;;;;;4938543;29;20774;-57
2022/12/09 20:33:09;;;;;;;20.60;7.93;;;;;;;;;;4945569;29;20036;-61
2022/12/09 20:35:36;;;;;;;27.10;8.73;;;;;;;;;;4943151;28;20049;-61
2022/12/09 20:38:02;;;;;;;23.95;8.35;;;;;;;;;;4944839;29;20039;-58
2022/12/09 20:40:29;;;;;;;30.80;9.32;;;;;;;;;;4942561;29;20031;-58
2022/12/09 20:42:55;;;;;;;23.48;7.35;;;;;;;;;;4949345;29;20043;-62
2022/12/09 20:45:21;;;;;;;23.90;7.63;;;;;;;;;;4947301;29;20403;-59
2022/12/09 20:47:47;;;;;;;28.30;7.65;;;;;;;;;;4942949;29;20093;-58
2022/12/09 20:50:13;;;;;;;27.08;7.22;;;;;;;;;;4946234;29;20473;-57
2022/12/09 20:52:39;;;;;;;25.17;7.82;;;;;;;;;;4942793;29;20473;-58
2022/12/09 20:55:05;;;;;;;20.73;7.60;;;;;;;;;;4938943;29;20428;-58
2022/12/09 20:57:31;;;;;;;23.27;7.82;;;;;;;;;;4933403;29;20055;-62
2022/12/09 20:59:57;;;;;;;26.13;8.45;;;;;;;;;;4935809;29;20039;-58
2022/12/09 21:02:23;;;;;;;22.20;8.82;;;;;;;;;;4933767;29;20127;-64
2022/12/09 21:04:50;;;;;;;20.48;8.05;;;;;;;;;;4933320;29;20035;-58
2022/12/09 21:07:16;;;;;;;26.35;9.63;;;;;;;;;;4946101;29;20039;-58
2022/12/09 21:09:43;;;;;;;22.15;8.48;;;;;;;;;;4952491;28;20019;-58
2022/12/09 21:12:10;;;;;;;26.55;8.38;;;;;;;;;;4956231;29;20031;-58